createdAt,value
2023-02-08T00:01:27.502Z,99626.47
2023-02-08T00:03:57.362Z,99623.81
2023-02-08T00:06:25.655Z,99618.94
2023-02-08T00:08:54.230Z,99620.25
2023-02-08T00:11:22.669Z,99617.75
2023-02-08T00:13:50.944Z,99612.56
2023-02-08T00:16:20.598Z,99623.34
2023-02-08T00:18:50.578Z,99621.16
2023-02-08T00:21:21.236Z,99623.22
2023-02-08T00:23:49.789Z,99627.66
2023-02-08T00:26:18.381Z,99629.88
2023-02-08T00:28:46.955Z,99630.56
2023-02-08T00:31:18.408Z,99622.25
2023-02-08T00:33:47.263Z,99622.69
2023-02-08T00:36:15.673Z,99621.03
2023-02-08T00:38:45.371Z,99629.88
2023-02-08T00:41:13.905Z,99626.13
2023-02-08T00:43:42.256Z,99627.16
2023-02-08T00:46:11.953Z,99625.34
2023-02-08T00:48:40.235Z,99635.25
2023-02-08T00:51:10.421Z,99634.53
2023-02-08T00:53:39.721Z,99635.13
2023-02-08T00:56:10.852Z,99637.53
2023-02-08T00:58:39.701Z,99640.97
2023-02-08T01:01:08.545Z,99642.00
2023-02-08T01:03:38.341Z,99633.19
2023-02-08T01:06:09.311Z,99642.38
2023-02-08T01:08:37.744Z,99635.31
2023-02-08T01:11:08.017Z,99634.66
2023-02-08T01:13:38.430Z,99633.19
2023-02-08T01:16:08.009Z,99633.78
2023-02-08T01:18:36.410Z,99625.47
2023-02-08T01:21:07.067Z,99630.59
2023-02-08T01:23:35.514Z,99622.78
2023-02-08T01:26:05.273Z,99625.16
2023-02-08T01:28:33.947Z,99628.25
2023-02-08T01:31:08.264Z,99635.81
2023-02-08T01:33:37.632Z,99623.91
2023-02-08T01:36:07.671Z,99624.84
2023-02-08T01:38:36.234Z,99617.41
2023-02-08T01:41:05.924Z,99623.28
2023-02-08T01:43:36.143Z,99615.28
2023-02-08T01:46:06.154Z,99614.09
2023-02-08T01:48:38.633Z,99615.16
2023-02-08T01:51:09.317Z,99607.94
2023-02-08T01:53:38.599Z,99604.75
2023-02-08T01:56:10.511Z,99608.75
2023-02-08T01:58:42.589Z,99611.94
2023-02-08T02:01:13.232Z,99615.47
2023-02-08T02:03:41.722Z,99607.03
2023-02-08T02:06:13.235Z,99613.47
2023-02-08T02:08:44.641Z,99613.19
2023-02-08T02:11:13.605Z,99610.03
2023-02-08T02:13:42.182Z,99616.19
2023-02-08T02:16:10.541Z,99613.00
2023-02-08T02:18:40.402Z,99620.63
2023-02-08T02:21:26.729Z,99616.94
2023-02-08T02:24:26.187Z,99633.44
2023-02-08T02:27:19.481Z,99623.97
2023-02-08T02:30:42.358Z,99622.44
2023-02-08T02:33:21.201Z,99621.78
2023-02-08T02:35:56.015Z,99631.41
2023-02-08T02:38:31.458Z,99629.00
2023-02-08T02:41:06.910Z,99633.44
2023-02-08T02:43:43.335Z,99631.63
2023-02-08T02:46:20.980Z,99633.59
2023-02-08T02:48:54.544Z,99631.03
2023-02-08T02:51:28.314Z,99641.84
2023-02-08T02:53:59.996Z,99642.13
2023-02-08T02:56:30.872Z,99645.22
2023-02-08T02:59:03.089Z,99640.66
2023-02-08T03:01:31.467Z,99643.84
2023-02-08T03:04:01.270Z,99648.59
2023-02-08T03:06:39.521Z,99637.38
2023-02-08T03:09:25.600Z,99644.69
2023-02-08T03:11:58.894Z,99650.44
2023-02-08T03:14:35.227Z,99662.66
2023-02-08T03:17:29.344Z,99666.31
2023-02-08T03:20:06.328Z,99655.72
2023-02-08T03:22:41.877Z,99659.69
2023-02-08T03:25:13.157Z,99666.78
2023-02-08T03:27:48.524Z,99673.25
2023-02-08T03:30:20.447Z,99672.81
2023-02-08T03:32:52.936Z,99673.88
2023-02-08T03:35:24.528Z,99673.91
2023-02-08T03:37:56.438Z,99675.22
2023-02-08T03:40:28.466Z,99683.81
2023-02-08T03:43:00.127Z,99681.09
2023-02-08T03:45:31.473Z,99678.41
2023-02-08T03:48:01.978Z,99674.97
2023-02-08T03:50:35.530Z,99676.19
2023-02-08T03:53:03.868Z,99681.28
2023-02-08T03:55:35.108Z,99677.03
2023-02-08T03:58:07.626Z,99676.81
2023-02-08T04:00:40.562Z,99675.47
2023-02-08T04:03:13.597Z,99667.25
2023-02-08T04:05:43.479Z,99678.72
2023-02-08T04:08:11.834Z,99681.16
2023-02-08T04:10:40.462Z,99676.66
2023-02-08T04:13:09.038Z,99677.81
2023-02-08T04:15:37.387Z,99682.41
2023-02-08T04:18:05.964Z,99678.88
2023-02-08T04:20:34.330Z,99686.03
2023-02-08T04:23:04.111Z,99694.78
2023-02-08T04:25:33.557Z,99696.50
2023-02-08T04:28:01.944Z,99697.38
2023-02-08T04:30:30.434Z,99705.69
2023-02-08T04:33:00.191Z,99698.75
2023-02-08T04:35:28.580Z,99697.84
2023-02-08T04:37:56.860Z,99697.59
2023-02-08T04:40:26.724Z,99686.28
2023-02-08T04:42:55.063Z,99689.72
2023-02-08T04:45:23.897Z,99690.78
2023-02-08T04:47:52.204Z,99680.69
2023-02-08T04:50:20.764Z,99676.69
2023-02-08T04:52:49.556Z,99675.56
2023-02-08T04:55:18.098Z,99670.97
2023-02-08T04:57:47.812Z,99667.13
2023-02-08T05:00:17.453Z,99668.94
2023-02-08T05:02:46.003Z,99665.28
2023-02-08T05:05:14.374Z,99672.44
2023-02-08T05:07:42.736Z,99673.22
2023-02-08T05:10:11.343Z,99672.56
2023-02-08T05:12:39.623Z,99674.78
2023-02-08T05:15:10.318Z,99672.63
2023-02-08T05:17:39.540Z,99676.91
2023-02-08T05:20:08.282Z,99683.97
2023-02-08T05:22:36.568Z,99689.78
2023-02-08T05:25:05.117Z,99685.97
2023-02-08T05:27:33.408Z,99682.09
2023-02-08T05:30:02.327Z,99680.06
2023-02-08T05:32:32.092Z,99680.34
2023-02-08T05:35:00.320Z,99686.69
2023-02-08T05:37:28.656Z,99681.06
2023-02-08T05:39:56.927Z,99681.69
2023-02-08T05:42:25.199Z,99680.66
2023-02-08T05:44:53.467Z,99683.63
2023-02-08T05:47:22.144Z,99687.44
2023-02-08T05:49:51.771Z,99687.72
2023-02-08T05:52:20.049Z,99684.44
2023-02-08T05:54:48.408Z,99696.75
2023-02-08T05:57:16.674Z,99698.84
2023-02-08T05:59:45.022Z,99708.78
2023-02-08T06:02:13.297Z,99699.63
2023-02-08T06:04:41.525Z,99708.94
2023-02-08T06:07:11.449Z,99715.75
2023-02-08T06:09:39.689Z,99713.38
2023-02-08T06:12:08.464Z,99719.44
2023-02-08T06:14:36.758Z,99729.66
2023-02-08T06:17:05.158Z,99729.22
2023-02-08T06:19:33.745Z,99731.59
2023-02-08T06:22:02.050Z,99740.94
2023-02-08T06:24:31.939Z,99748.91
2023-02-08T06:27:00.342Z,99759.16
2023-02-08T06:29:28.909Z,99756.78
2023-02-08T06:31:57.414Z,99758.41
2023-02-08T06:34:26.652Z,99769.78
2023-02-08T10:19:55.250Z,99835.06
2023-02-08T10:47:54.938Z,99826.97
2023-02-08T10:50:29.918Z,99822.44
2023-02-08T10:52:58.644Z,99819.69
2023-02-08T10:55:27.171Z,99826.31
2023-02-08T10:57:58.967Z,99816.66
2023-02-08T11:00:29.563Z,99811.81
2023-02-08T11:03:01.926Z,99794.16
2023-02-08T11:05:40.769Z,99813.53
2023-02-08T11:08:10.878Z,99796.91
2023-02-08T11:10:39.632Z,99789.22
2023-02-08T11:13:17.173Z,99783.19
2023-02-08T11:15:47.780Z,99793.59
2023-02-08T11:18:32.145Z,99792.84
2023-02-08T11:21:02.139Z,99797.88
2023-02-08T11:23:32.203Z,99797.34
2023-02-08T11:26:18.896Z,99791.88
2023-02-08T11:29:00.527Z,99786.88
2023-02-08T11:31:29.113Z,99787.09
2023-02-08T11:34:06.530Z,99777.16
2023-02-08T11:36:36.864Z,99783.56
2023-02-08T11:39:17.149Z,99775.47
2023-02-08T11:41:45.848Z,99777.09
2023-02-08T11:44:21.498Z,99772.25
2023-02-08T11:46:50.194Z,99777.22
2023-02-08T11:49:25.029Z,99786.88
2023-02-08T11:51:53.538Z,99778.00
2023-02-08T11:54:36.754Z,99767.84
2023-02-08T11:57:11.940Z,99771.59
2023-02-08T11:59:40.239Z,99775.63
2023-02-08T12:02:37.120Z,99773.34
2023-02-08T12:05:13.220Z,99766.50
2023-02-08T12:07:52.895Z,99766.22
2023-02-08T12:10:32.106Z,99758.69
2023-02-08T12:13:08.390Z,99759.66
2023-02-08T12:15:57.419Z,99757.09
2023-02-08T12:18:40.844Z,99761.69
2023-02-08T12:21:13.869Z,99752.78
2023-02-08T12:23:54.134Z,99754.78
2023-02-08T12:26:32.896Z,99753.84
2023-02-08T12:29:15.006Z,99746.50
2023-02-08T12:31:57.100Z,99750.25
2023-02-08T12:34:40.095Z,99738.94
2023-02-08T12:37:35.552Z,99743.25
2023-02-08T12:40:33.155Z,99744.63
2023-02-08T12:43:13.945Z,99743.66
2023-02-08T12:45:54.146Z,99732.88
2023-02-08T12:48:28.972Z,99724.56
2023-02-08T12:51:04.886Z,99721.25
2023-02-08T12:53:36.619Z,99722.44
2023-02-08T12:56:08.986Z,99725.59
2023-02-08T12:58:41.846Z,99720.03
2023-02-08T13:01:15.336Z,99714.13
2023-02-08T13:03:46.703Z,99728.91
2023-02-08T13:06:17.993Z,99715.84
2023-02-08T13:08:53.741Z,99717.88
2023-02-08T13:11:26.750Z,99708.00
2023-02-08T13:13:59.155Z,99706.34
2023-02-08T13:16:30.597Z,99700.66
2023-02-08T13:19:15.064Z,99705.19
2023-02-08T13:21:44.121Z,99703.97
2023-02-08T13:24:20.505Z,99701.56
2023-02-08T13:26:48.881Z,99700.53
2023-02-08T13:29:19.707Z,99695.47
2023-02-08T13:31:50.703Z,99693.47
2023-02-08T13:34:26.445Z,99693.78
2023-02-08T13:36:59.615Z,99686.50
2023-02-08T13:39:36.434Z,99686.41
2023-02-08T13:42:08.375Z,99700.00
2023-02-08T13:44:38.500Z,99703.38
2023-02-08T13:47:07.855Z,99702.41
2023-02-08T13:49:54.839Z,99694.28
2023-02-08T13:52:56.316Z,99696.50
2023-02-08T13:56:05.862Z,99700.56
2023-02-08T13:59:05.770Z,99708.22
2023-02-08T14:01:36.270Z,99705.41
2023-02-08T14:04:29.990Z,99705.94
2023-02-08T14:07:02.669Z,99701.81
2023-02-08T14:09:40.955Z,99694.16
2023-02-08T14:12:16.800Z,99695.34
2023-02-08T14:14:45.142Z,99687.69
2023-02-08T14:17:20.589Z,99689.88
2023-02-08T14:19:58.410Z,99689.88
2023-02-08T14:22:29.216Z,99692.69
2023-02-08T14:25:03.603Z,99699.66
2023-02-08T14:27:36.880Z,99697.31
2023-02-08T14:30:09.015Z,99691.44
2023-02-08T14:32:39.108Z,99692.50
2023-02-08T14:35:09.897Z,99687.09
2023-02-08T14:37:38.289Z,99685.44
2023-02-08T14:40:44.293Z,99679.16
2023-02-08T14:43:32.669Z,99684.09
2023-02-08T14:46:34.297Z,99690.38
2023-02-08T14:49:02.633Z,99694.69
2023-02-08T14:51:35.336Z,99695.72
2023-02-08T14:54:07.519Z,99692.47
2023-02-08T14:56:37.716Z,99696.75
2023-02-08T14:59:10.250Z,99689.31
2023-02-08T15:01:44.322Z,99686.31
2023-02-08T16:25:39.068Z,99732.97
2023-02-08T16:28:08.292Z,99732.59
2023-02-08T16:30:36.878Z,99732.69
2023-02-08T16:33:09.761Z,99742.47
2023-02-08T16:35:39.508Z,99734.50
2023-02-08T16:38:10.270Z,99728.94
2023-02-08T16:43:38.124Z,99730.94
2023-02-08T16:46:22.750Z,99724.50
2023-02-08T16:48:52.817Z,99733.69
2023-02-08T16:51:23.801Z,99741.44
2023-02-08T16:53:55.027Z,99741.56
2023-02-08T16:56:24.221Z,99741.28
2023-02-08T16:58:54.413Z,99744.31
2023-02-08T17:01:24.929Z,99746.75
2023-02-08T17:03:54.047Z,99748.00
2023-02-08T17:06:29.974Z,99751.03
2023-02-08T17:08:59.519Z,99745.53
2023-02-08T17:11:28.817Z,99755.69
2023-02-08T17:13:59.650Z,99750.09
2023-02-08T17:16:30.338Z,99753.66
2023-02-08T17:19:00.879Z,99756.72
2023-02-08T17:21:30.428Z,99749.19
2023-02-08T17:24:00.436Z,99751.34
2023-02-08T17:26:31.564Z,99747.81
2023-02-08T17:29:04.523Z,99757.59
2023-02-08T17:31:33.660Z,99757.22
2023-02-08T17:34:05.452Z,99763.31
2023-02-08T17:36:36.155Z,99762.03
2023-02-08T17:39:05.823Z,99749.84
2023-02-08T17:41:34.576Z,99753.59
2023-02-08T17:44:06.232Z,99757.56
2023-02-08T17:46:35.398Z,99761.38
2023-02-08T17:49:08.274Z,99752.75
2023-02-08T17:51:37.783Z,99755.94
2023-02-08T17:54:10.501Z,99755.94
2023-02-08T17:56:39.854Z,99749.59
2023-02-08T17:59:11.047Z,99745.81
2023-02-08T18:01:40.727Z,99748.88
2023-02-08T18:04:11.866Z,99747.72
2023-02-08T18:06:42.171Z,99743.56
2023-02-08T18:09:11.560Z,99740.94
2023-02-08T18:11:41.883Z,99748.06
2023-02-08T18:14:12.369Z,99761.66
2023-02-08T18:16:41.762Z,99764.34
2023-02-08T18:19:11.669Z,99764.09
2023-02-08T18:21:40.640Z,99774.25
2023-02-08T18:24:10.586Z,99774.75
2023-02-08T18:26:40.438Z,99762.59
2023-02-08T18:29:11.279Z,99766.88
2023-02-08T18:31:42.593Z,99757.88
2023-02-08T18:34:12.283Z,99765.13
2023-02-08T18:36:44.763Z,99766.63
2023-02-08T18:39:16.014Z,99762.31
2023-02-08T18:41:46.559Z,99765.22
2023-02-08T18:44:18.163Z,99760.94
2023-02-08T18:46:50.531Z,99766.63
2023-02-08T18:49:20.298Z,99769.16
2023-02-08T18:51:53.213Z,99763.31
2023-02-08T18:54:23.426Z,99756.75
2023-02-08T18:56:56.387Z,99751.03
2023-02-08T18:59:25.856Z,99750.66
2023-02-08T19:01:59.258Z,99757.00
2023-02-08T19:04:29.273Z,99754.47
2023-02-08T19:07:00.099Z,99747.88
2023-02-08T19:09:31.163Z,99747.00
2023-02-08T19:12:00.816Z,99743.59
2023-02-08T19:14:33.417Z,99744.22
2023-02-08T19:17:07.589Z,99752.47
2023-02-08T19:19:39.856Z,99748.16
2023-02-08T19:22:09.666Z,99761.69
2023-02-08T19:24:41.537Z,99752.22
2023-02-08T19:27:11.523Z,99748.63
2023-02-08T19:29:43.091Z,99755.44
2023-02-08T19:32:15.977Z,99746.69
2023-02-08T19:34:46.362Z,99749.91
2023-02-08T19:37:16.743Z,99759.06
2023-02-08T19:39:53.460Z,99758.25
2023-02-08T19:42:25.927Z,99765.53
2023-02-08T19:44:55.019Z,99771.97
2023-02-08T19:47:50.005Z,99764.13
2023-02-08T19:50:20.628Z,99771.09
2023-02-08T19:52:50.878Z,99767.28
2023-02-08T19:55:23.561Z,99768.84
2023-02-08T19:58:00.124Z,99767.69
2023-02-08T20:00:29.399Z,99770.38
2023-02-08T20:03:05.647Z,99771.00
2023-02-08T20:05:40.791Z,99764.16
2023-02-08T20:08:11.116Z,99756.91
2023-02-08T20:10:41.095Z,99751.81
2023-02-08T20:13:10.508Z,99766.81
2023-02-08T20:15:41.789Z,99769.19
2023-02-08T20:18:14.123Z,99770.72
2023-02-08T20:20:44.560Z,99771.63
2023-02-08T20:23:22.833Z,99768.69
2023-02-08T20:25:55.639Z,99759.69
2023-02-08T20:28:26.077Z,99774.03
2023-02-08T20:30:57.662Z,99774.41
2023-02-08T20:33:30.851Z,99772.75
2023-02-08T20:36:01.371Z,99768.06
2023-02-08T20:38:31.905Z,99769.72
2023-02-08T20:41:05.019Z,99775.03
2023-02-08T20:43:37.615Z,99770.47
2023-02-08T20:46:10.083Z,99780.00
2023-02-08T20:48:41.099Z,99783.16
2023-02-08T20:51:12.585Z,99783.81
2023-02-08T20:53:44.256Z,99781.13
2023-02-08T20:56:17.448Z,99775.03
2023-02-08T20:58:48.754Z,99772.53
2023-02-08T21:01:22.294Z,99776.69
2023-02-08T21:03:54.825Z,99780.63
2023-02-08T21:06:30.115Z,99776.56
2023-02-08T21:09:02.420Z,99777.19
2023-02-08T21:11:32.966Z,99784.78
2023-02-08T21:14:02.279Z,99779.09
2023-02-08T21:16:31.159Z,99775.56
2023-02-08T21:19:01.899Z,99779.50
2023-02-08T21:21:31.962Z,99779.97
2023-02-08T21:24:01.141Z,99775.44
2023-02-08T21:26:30.296Z,99777.19
2023-02-08T21:29:00.588Z,99777.06
2023-02-08T21:31:29.689Z,99779.19
2023-02-08T21:33:58.367Z,99781.22
2023-02-08T21:36:29.594Z,99779.94
2023-02-08T21:38:58.824Z,99779.44
2023-02-08T21:41:29.097Z,99769.03
2023-02-08T21:43:59.762Z,99775.84
2023-02-08T21:46:28.829Z,99771.31
2023-02-08T21:49:16.471Z,99767.22
2023-02-08T21:52:03.442Z,99767.91
2023-02-08T21:54:43.018Z,99769.63
2023-02-08T21:57:14.596Z,99773.78
2023-02-08T21:59:43.162Z,99772.66
2023-02-08T22:02:14.648Z,99763.16
2023-02-08T22:04:46.842Z,99763.78
2023-02-08T22:07:17.608Z,99772.28
2023-02-08T22:09:45.912Z,99764.81
2023-02-08T22:12:17.752Z,99772.53
2023-02-08T22:14:46.172Z,99773.16
2023-02-08T22:17:15.743Z,99773.16
2023-02-08T22:19:44.526Z,99771.63
2023-02-08T22:22:13.426Z,99774.31
2023-02-08T22:24:43.184Z,99772.03
2023-02-08T22:27:12.019Z,99773.44
2023-02-08T22:29:40.327Z,99771.63
2023-02-08T22:32:10.057Z,99773.66
2023-02-08T22:34:39.112Z,99767.56
2023-02-08T22:37:07.398Z,99759.19
2023-02-08T22:39:35.903Z,99764.72
2023-02-08T22:42:08.690Z,99762.19
2023-02-08T22:44:37.368Z,99766.38
2023-02-08T22:47:07.511Z,99771.38
2023-02-08T22:49:36.062Z,99764.88
2023-02-08T22:52:05.561Z,99769.66
2023-02-08T22:54:34.052Z,99767.84
2023-02-08T22:57:02.297Z,99770.84
2023-02-08T22:59:32.015Z,99769.06
2023-02-08T23:02:01.740Z,99772.47
2023-02-08T23:04:30.614Z,99777.53
2023-02-08T23:06:59.630Z,99779.19
2023-02-08T23:09:27.953Z,99785.13
2023-02-08T23:11:56.415Z,99776.38
2023-02-08T23:14:24.745Z,99767.16
2023-02-08T23:16:54.405Z,99767.78
2023-02-08T23:19:22.752Z,99767.50
2023-02-08T23:21:51.273Z,99743.38
2023-02-08T23:24:19.529Z,99748.66
2023-02-08T23:26:47.827Z,99752.28
2023-02-08T23:29:16.067Z,99756.03
2023-02-08T23:31:45.082Z,99758.53
2023-02-08T23:34:15.028Z,99756.88
2023-02-08T23:36:43.460Z,99748.72
2023-02-08T23:39:11.719Z,99750.38
2023-02-08T23:41:39.985Z,99746.06
2023-02-08T23:44:08.296Z,99754.59
2023-02-08T23:46:36.568Z,99752.16
2023-02-08T23:49:05.175Z,99740.00
2023-02-08T23:51:34.838Z,99741.09
2023-02-08T23:54:03.125Z,99748.56
2023-02-08T23:56:33.081Z,99743.97
2023-02-08T23:59:01.638Z,99742.06
